Time;durP1;ratioP1;P1;durP2;ratioP2;P2;SDS_P1;SDS_P2;PMS_P1;PMS_P2;Temp;Humidity;BMP_temperature;BMP_pressure;BME280_temperature;BME280_humidity;BME280_pressure;Samples;Min_cycle;Max_cycle;Signal;HPM_P1;HPM_P2
2022/12/01 00:02:07;;;;;;;94.63;40.17;;;;;;;3.33;100.00;102395.06;7393374;19;20450;-59
2022/12/01 00:04:37;;;;;;;105.27;41.30;;;;;;;3.66;100.00;102393.97;7394573;19;20415;-58
2022/12/01 00:07:07;;;;;;;97.50;41.57;;;;;;;3.65;100.00;102392.16;7395768;19;20406;-60
2022/12/01 00:12:21;;;;;;;114.00;43.27;;;;;;;3.82;100.00;102390.31;7394559;19;20983;-59
2022/12/01 00:14:59;;;;;;;107.87;40.30;;;;;;;3.85;100.00;102399.16;7395477;19;20432;-58
2022/12/01 00:17:30;;;;;;;100.43;40.63;;;;;;;3.87;100.00;102402.78;7393430;19;20422;-59
2022/12/01 00:20:00;;;;;;;101.43;41.37;;;;;;;3.89;100.00;102400.34;7396200;19;20410;-57
2022/12/01 00:22:31;;;;;;;100.27;40.27;;;;;;;3.83;100.00;102402.31;7391418;19;20436;-58
2022/12/01 00:25:00;;;;;;;113.50;42.70;;;;;;;3.91;100.00;102403.97;7394674;19;21033;-58
2022/12/01 00:27:32;;;;;;;106.40;42.87;;;;;;;3.90;100.00;102408.16;7393550;19;20770;-59
2022/12/01 00:30:02;;;;;;;108.10;43.77;;;;;;;3.88;100.00;102412.25;7397014;19;20416;-60
2022/12/01 00:32:31;;;;;;;102.80;41.97;;;;;;;4.01;100.00;102406.63;7392236;19;20426;-59
2022/12/01 00:35:01;;;;;;;98.20;42.93;;;;;;;4.02;100.00;102415.22;7394550;19;20442;-57
2022/12/01 00:37:31;;;;;;;92.97;39.87;;;;;;;3.90;100.00;102423.50;7391494;19;20415;-59
2022/12/01 00:40:01;;;;;;;105.77;41.53;;;;;;;3.92;100.00;102426.19;7397157;19;20387;-60
2022/12/01 00:42:34;;;;;;;93.27;39.20;;;;;;;3.80;100.00;102430.13;7393837;19;20971;-59
2022/12/01 00:45:03;;;;;;;94.27;40.00;;;;;;;3.88;100.00;102426.66;7393623;19;20427;-55
2022/12/01 00:47:33;;;;;;;99.47;41.60;;;;;;;3.92;100.00;102434.78;7392824;19;20424;-59
2022/12/01 00:50:02;;;;;;;113.57;42.20;;;;;;;3.89;100.00;102434.47;7395447;19;20709;-59
2022/12/01 00:52:32;;;;;;;104.87;42.50;;;;;;;3.91;100.00;102438.06;7391080;19;20423;-56
2022/12/01 00:55:01;;;;;;;110.30;40.07;;;;;;;3.91;100.00;102443.16;7393725;19;20769;-56
2022/12/01 00:57:33;;;;;;;97.17;39.60;;;;;;;3.92;100.00;102450.09;7392459;19;20418;-59
2022/12/01 01:00:04;;;;;;;102.47;41.00;;;;;;;3.78;100.00;102450.41;7392583;19;20443;-57
2022/12/01 01:02:34;;;;;;;96.50;38.87;;;;;;;3.57;100.00;102450.13;7390758;19;20431;-56
2022/12/01 01:05:04;;;;;;;104.23;40.07;;;;;;;3.48;100.00;102461.97;7393321;19;20459;-58
2022/12/01 01:07:33;;;;;;;93.53;38.13;;;;;;;3.44;100.00;102462.44;7393779;19;20437;-57
2022/12/01 01:10:03;;;;;;;94.83;40.73;;;;;;;3.41;100.00;102465.59;7394214;19;20397;-59
2022/12/01 01:12:35;;;;;;;100.57;43.90;;;;;;;3.31;100.00;102463.78;7392480;19;20761;-57
2022/12/01 01:15:05;;;;;;;98.53;40.80;;;;;;;3.29;100.00;102472.03;7392731;19;20983;-58
2022/12/01 01:17:35;;;;;;;90.77;39.80;;;;;;;3.32;100.00;102473.25;7389402;19;20433;-56
2022/12/01 01:20:05;;;;;;;96.20;40.40;;;;;;;3.36;100.00;102470.25;7393833;19;20779;-56
2022/12/01 01:22:36;;;;;;;98.13;41.13;;;;;;;3.23;100.00;102472.34;7392658;19;20376;-59
2022/12/01 01:25:06;;;;;;;101.20;41.10;;;;;;;3.23;100.00;102475.78;7391195;19;20442;-58
2022/12/01 01:27:38;;;;;;;91.80;40.63;;;;;;;3.18;100.00;102469.31;7394127;19;20736;-59
2022/12/01 01:30:09;;;;;;;95.50;39.37;;;;;;;3.19;100.00;102467.69;7391062;19;20976;-58
2022/12/01 01:32:39;;;;;;;98.53;42.13;;;;;;;3.21;100.00;102463.63;7392709;19;20403;-58
2022/12/01 01:35:09;;;;;;;97.63;39.93;;;;;;;3.20;100.00;102464.38;7389711;19;20458;-59
2022/12/01 01:37:39;;;;;;;100.77;41.40;;;;;;;3.24;100.00;102463.94;7393734;19;20746;-59
2022/12/01 01:40:10;;;;;;;102.80;41.33;;;;;;;3.21;100.00;102455.97;7390946;19;21266;-59
2022/12/01 01:42:42;;;;;;;100.47;39.37;;;;;;;3.20;100.00;102461.84;7395698;19;20400;-58
2022/12/01 01:45:21;;;;;;;99.63;40.97;;;;;;;3.19;100.00;102460.03;7389532;19;20423;-59
2022/12/01 01:47:52;;;;;;;97.90;39.23;;;;;;;3.16;100.00;102459.72;7393399;19;20482;-56
2022/12/01 01:50:24;;;;;;;92.93;39.40;;;;;;;3.18;100.00;102460.78;7394579;19;20447;-59
2022/12/01 01:52:58;;;;;;;101.87;41.70;;;;;;;3.19;100.00;102452.38;7392592;19;20412;-56
2022/12/01 01:55:27;;;;;;;108.00;40.80;;;;;;;3.15;100.00;102455.38;7388927;19;20929;-56
2022/12/01 01:58:00;;;;;;;103.77;41.37;;;;;;;3.18;100.00;102458.25;7393190;19;20400;-59
2022/12/01 02:00:29;;;;;;;109.47;41.73;;;;;;;3.18;100.00;102453.13;7390155;19;20404;-58
2022/12/01 02:02:59;;;;;;;97.03;40.20;;;;;;;3.23;100.00;102451.94;7392516;19;20395;-58
2022/12/01 02:05:31;;;;;;;96.90;41.07;;;;;;;3.20;100.00;102455.09;7387665;19;20434;-57
2022/12/01 02:08:01;;;;;;;95.47;40.30;;;;;;;3.17;100.00;102456.44;7389091;19;20383;-58
2022/12/01 02:10:44;;;;;;;95.27;39.30;;;;;;;3.18;100.00;102445.47;7388639;19;20920;-59
2022/12/01 02:13:23;;;;;;;105.50;42.07;;;;;;;3.15;100.00;102446.06;7386041;19;20447;-58
2022/12/01 02:15:58;;;;;;;105.57;43.77;;;;;;;3.14;100.00;102446.84;7393612;19;20450;-58
2022/12/01 02:18:32;;;;;;;97.43;40.97;;;;;;;3.10;100.00;102440.53;7388400;19;20403;-59
2022/12/01 02:21:22;;;;;;;103.37;42.53;;;;;;;3.12;100.00;102443.22;7393149;19;20403;-59
2022/12/01 02:24:35;;;;;;;97.47;42.10;;;;;;;3.12;100.00;102444.88;7391836;19;20435;-59
2022/12/01 02:27:10;;;;;;;102.67;41.97;;;;;;;3.13;100.00;102447.56;7391787;19;20949;-57
2022/12/01 02:30:03;;;;;;;91.70;40.83;;;;;;;3.18;100.00;102451.47;7385250;19;20466;-59
2022/12/01 02:32:50;;;;;;;98.53;38.77;;;;;;;3.16;100.00;102450.44;7394922;19;20403;-59
2022/12/01 02:35:26;;;;;;;106.00;41.77;;;;;;;3.13;100.00;102446.66;7391800;19;20438;-59
2022/12/01 02:38:05;;;;;;;104.57;39.83;;;;;;;3.13;100.00;102439.00;7395638;19;20758;-59
2022/12/01 02:40:39;;;;;;;103.00;40.63;;;;;;;3.12;100.00;102448.31;7389044;19;21103;-58
2022/12/01 02:43:13;;;;;;;98.10;40.00;;;;;;;3.15;100.00;102447.72;7392867;19;20411;-57
2022/12/01 02:45:47;;;;;;;103.17;43.00;;;;;;;3.15;100.00;102445.16;7388194;19;20406;-57
2022/12/01 02:48:24;;;;;;;105.00;41.13;;;;;;;3.12;100.00;102453.41;7388222;19;20467;-59
2022/12/01 02:50:55;;;;;;;115.00;43.07;;;;;;;3.12;100.00;102449.97;7390413;19;20398;-58
2022/12/01 02:53:24;;;;;;;113.80;46.37;;;;;;;3.12;100.00;102452.53;7388257;19;20382;-58
2022/12/01 02:55:56;;;;;;;102.50;42.80;;;;;;;3.15;100.00;102452.81;7388903;19;20430;-59
2022/12/01 02:58:26;;;;;;;100.70;41.40;;;;;;;3.10;100.00;102452.38;7390428;19;20399;-56
2022/12/01 03:01:03;;;;;;;104.83;40.43;;;;;;;3.08;100.00;102457.31;7390125;19;20400;-59
2022/12/01 03:03:46;;;;;;;107.80;42.40;;;;;;;3.05;100.00;102454.47;7387838;19;20931;-59
2022/12/01 03:06:21;;;;;;;106.80;42.60;;;;;;;3.05;100.00;102457.03;7390837;19;21012;-59
2022/12/01 03:08:56;;;;;;;112.47;42.87;;;;;;;3.04;100.00;102456.84;7388001;19;20425;-57
2022/12/01 03:11:32;;;;;;;111.27;41.67;;;;;;;3.05;100.00;102451.00;7390163;19;21221;-57
2022/12/01 03:14:11;;;;;;;101.87;41.30;;;;;;;3.01;100.00;102449.78;7390878;19;20413;-58
2022/12/01 03:16:47;;;;;;;112.57;43.03;;;;;;;3.01;100.00;102453.97;7390554;19;20498;-59
2022/12/01 03:19:23;;;;;;;112.90;41.97;;;;;;;2.98;100.00;102454.59;7386903;19;20430;-59
2022/12/01 03:21:57;;;;;;;107.80;41.83;;;;;;;2.98;100.00;102457.16;7389962;19;20379;-58
2022/12/01 03:24:30;;;;;;;104.70;41.43;;;;;;;3.00;100.00;102453.09;7394387;19;20430;-59
2022/12/01 03:27:02;;;;;;;110.07;42.40;;;;;;;2.96;100.00;102456.09;7398128;19;20414;-59
2022/12/01 03:29:35;;;;;;;111.07;41.17;;;;;;;2.91;100.00;102454.72;7395247;19;20433;-58
2022/12/01 03:32:08;;;;;;;103.67;41.33;;;;;;;2.88;100.00;102452.78;7394725;19;20388;-58
2022/12/01 03:34:43;;;;;;;107.77;42.43;;;;;;;2.88;100.00;102462.06;7393615;19;20433;-59
2022/12/01 03:37:16;;;;;;;107.77;41.93;;;;;;;2.88;100.00;102459.53;7397243;19;20391;-60
2022/12/01 03:39:47;;;;;;;109.60;42.50;;;;;;;2.86;100.00;102463.59;7394760;19;20437;-59
2022/12/01 03:42:20;;;;;;;114.27;44.47;;;;;;;2.84;100.00;102464.28;7398773;19;20403;-57
2022/12/01 03:44:54;;;;;;;113.30;42.63;;;;;;;2.87;100.00;102460.28;7393279;19;20430;-59
2022/12/01 03:47:28;;;;;;;112.27;41.20;;;;;;;2.77;100.00;102463.56;7394472;19;20419;-56
2022/12/01 03:50:02;;;;;;;103.77;39.57;;;;;;;2.72;100.00;102450.31;7396144;19;20422;-58
2022/12/01 03:52:40;;;;;;;106.23;42.40;;;;;;;2.73;100.00;102452.16;7396672;19;20399;-59
2022/12/01 03:55:16;;;;;;;102.90;42.20;;;;;;;2.72;100.00;102460.50;7390470;19;20414;-58
2022/12/01 03:57:48;;;;;;;263.70;106.90;;;;;;;4.30;100.00;102443.34;7397448;19;20788;-59
2022/12/01 04:00:18;;;;;;;137.90;53.07;;;;;;;4.65;100.00;102444.84;7397003;19;20462;-57
2022/12/01 04:02:48;;;;;;;140.77;55.13;;;;;;;4.78;100.00;102444.34;7394755;19;21161;-58
2022/12/01 04:05:20;;;;;;;130.13;51.57;;;;;;;4.68;100.00;102451.16;7387931;19;20423;-60
2022/12/01 04:07:54;;;;;;;112.67;46.20;;;;;;;4.94;100.00;102462.91;7395900;19;20412;-57
2022/12/01 04:10:23;;;;;;;104.27;43.37;;;;;;;4.92;100.00;102473.78;7392789;19;20831;-56
2022/12/01 04:12:57;;;;;;;102.60;42.37;;;;;;;5.13;100.00;102477.41;7398033;19;20399;-55
2022/12/01 04:15:27;;;;;;;96.00;38.23;;;;;;;5.29;100.00;102492.50;7390603;19;20428;-57
2022/12/01 04:17:57;;;;;;;92.37;37.40;;;;;;;5.18;100.00;102506.84;7396353;19;20749;-59
2022/12/01 04:20:31;;;;;;;89.97;37.43;;;;;;;4.72;100.00;102524.84;7395950;19;20451;-58
2022/12/01 04:23:01;;;;;;;91.07;36.47;;;;;;;4.56;100.00;102525.06;7395118;19;20400;-57
2022/12/01 04:25:30;;;;;;;89.63;36.70;;;;;;;3.92;100.00;102536.94;7390221;19;20466;-59
2022/12/01 04:27:59;;;;;;;95.77;38.63;;;;;;;3.62;100.00;102540.84;7395679;19;20410;-59
2022/12/01 04:30:29;;;;;;;93.23;37.73;;;;;;;3.49;100.00;102543.81;7393057;19;20987;-59
2022/12/01 04:32:59;;;;;;;100.97;37.53;;;;;;;3.30;100.00;102543.66;7393693;19;20388;-58
2022/12/01 04:35:31;;;;;;;98.07;40.60;;;;;;;3.25;100.00;102547.38;7389340;19;20452;-60
2022/12/01 04:38:00;;;;;;;92.80;37.23;;;;;;;3.20;100.00;102546.00;7394197;19;20401;-59
2022/12/01 04:40:30;;;;;;;99.70;39.03;;;;;;;3.25;100.00;102547.38;7393004;19;20469;-58
2022/12/01 04:42:59;;;;;;;87.83;37.17;;;;;;;3.23;100.00;102549.78;7397212;19;20393;-58
2022/12/01 04:45:29;;;;;;;111.17;42.67;;;;;;;3.19;100.00;102541.66;7389822;19;20436;-59
2022/12/01 04:47:58;;;;;;;100.47;37.90;;;;;;;3.09;100.00;102550.94;7394344;19;20400;-58
2022/12/01 04:50:32;;;;;;;90.50;38.10;;;;;;;3.09;100.00;102540.72;7390978;19;21189;-58
2022/12/01 04:53:01;;;;;;;111.40;40.80;;;;;;;3.10;100.00;102541.63;7393338;19;20392;-59
2022/12/01 04:55:32;;;;;;;107.03;40.40;;;;;;;3.05;100.00;102538.63;7388795;19;21048;-57
2022/12/01 04:58:03;;;;;;;101.33;39.30;;;;;;;3.05;100.00;102537.72;7393858;19;20391;-58
2022/12/01 05:00:33;;;;;;;104.77;39.40;;;;;;;3.01;100.00;102533.97;7390636;19;20426;-60
2022/12/01 05:03:02;;;;;;;106.40;40.33;;;;;;;3.00;100.00;102539.81;7393189;19;20464;-59
2022/12/01 05:05:35;;;;;;;104.80;40.00;;;;;;;2.95;100.00;102535.88;7386564;19;20427;-54
2022/12/01 05:08:04;;;;;;;107.33;40.37;;;;;;;2.93;100.00;102534.84;7393634;19;20711;-56
2022/12/01 05:10:36;;;;;;;106.60;39.27;;;;;;;2.90;100.00;102537.06;7390793;19;20494;-58
2022/12/01 05:13:06;;;;;;;117.00;41.50;;;;;;;2.97;100.00;102536.94;7392330;19;20391;-57
2022/12/01 05:15:36;;;;;;;112.90;40.27;;;;;;;2.97;100.00;102540.41;7386435;19;20462;-55
2022/12/01 05:18:06;;;;;;;111.07;41.93;;;;;;;2.93;100.00;102537.41;7393138;19;20402;-58
2022/12/01 05:23:20;;;;;;;113.37;41.10;;;;;;;2.82;100.00;102531.22;7389848;19;20434;-55
2022/12/01 05:25:49;;;;;;;112.50;43.30;;;;;;;2.84;100.00;102530.59;7390196;19;20419;-55
2022/12/01 05:28:19;;;;;;;115.47;40.67;;;;;;;2.88;100.00;102528.38;7391721;19;20391;-57
2022/12/01 05:30:49;;;;;;;112.20;41.90;;;;;;;2.82;100.00;102527.00;7392022;19;20888;-60
2022/12/01 05:33:19;;;;;;;104.70;39.80;;;;;;;2.84;100.00;102533.13;7389434;19;20414;-58
2022/12/01 05:35:52;;;;;;;114.07;43.20;;;;;;;2.79;100.00;102534.34;7390775;19;21272;-58
2022/12/01 05:38:22;;;;;;;127.17;44.80;;;;;;;2.87;100.00;102534.22;7389551;19;20403;-56
2022/12/01 05:40:53;;;;;;;133.53;47.00;;;;;;;2.90;100.00;102532.88;7391741;19;20928;-58
2022/12/01 05:43:23;;;;;;;116.47;43.43;;;;;;;2.86;100.00;102529.88;7394955;19;20400;-59
2022/12/01 05:45:58;;;;;;;120.83;42.97;;;;;;;2.87;100.00;102529.13;7388670;19;20431;-59
2022/12/01 05:48:28;;;;;;;134.57;48.20;;;;;;;2.82;100.00;102524.44;7389477;19;20837;-56
2022/12/01 05:51:00;;;;;;;129.90;43.40;;;;;;;2.79;100.00;102529.25;7391784;19;20411;-57
2022/12/01 05:53:30;;;;;;;125.37;44.30;;;;;;;2.82;100.00;102524.44;7391486;19;20884;-59
2022/12/01 05:55:59;;;;;;;129.37;43.37;;;;;;;2.82;100.00;102518.47;7389639;19;20419;-58
2022/12/01 05:58:28;;;;;;;120.97;44.00;;;;;;;2.86;100.00;102519.69;7389530;19;20410;-59
2022/12/01 06:00:58;;;;;;;118.03;43.07;;;;;;;2.85;100.00;102518.75;7390440;19;20491;-60
2022/12/01 06:03:29;;;;;;;118.50;43.50;;;;;;;2.86;100.00;102517.13;7391433;19;20418;-58
2022/12/01 06:06:01;;;;;;;132.67;44.67;;;;;;;2.86;100.00;102517.13;7389930;19;20778;-59
2022/12/01 06:08:30;;;;;;;121.70;42.93;;;;;;;2.84;100.00;102522.94;7389053;19;20408;-57
2022/12/01 06:11:00;;;;;;;109.00;40.83;;;;;;;2.80;100.00;102523.41;7390160;19;20391;-60
2022/12/01 06:13:29;;;;;;;114.60;41.77;;;;;;;2.83;100.00;102520.25;7388467;19;21177;-57
2022/12/01 06:16:01;;;;;;;115.53;42.40;;;;;;;2.84;100.00;102516.97;7394141;19;20427;-58
2022/12/01 06:18:33;;;;;;;124.97;44.27;;;;;;;2.79;100.00;102526.69;7390028;19;20395;-57
2022/12/01 06:21:06;;;;;;;114.47;41.40;;;;;;;2.83;100.00;102521.16;7390988;19;20457;-59
2022/12/01 06:23:35;;;;;;;123.43;42.30;;;;;;;2.83;100.00;102518.59;7387468;19;20392;-59
2022/12/01 06:26:05;;;;;;;111.23;40.77;;;;;;;2.79;100.00;102518.13;7388500;19;20431;-55
2022/12/01 06:28:35;;;;;;;108.37;40.23;;;;;;;2.70;100.00;102523.19;7388208;19;20392;-58
2022/12/01 06:31:04;;;;;;;123.00;44.03;;;;;;;2.73;100.00;102518.44;7390873;19;20399;-59
2022/12/01 06:33:34;;;;;;;111.13;39.73;;;;;;;2.73;100.00;102527.72;7387158;19;20395;-58
2022/12/01 06:36:09;;;;;;;126.47;43.20;;;;;;;2.76;100.00;102522.94;7385179;19;21278;-59
2022/12/01 06:38:39;;;;;;;128.00;46.47;;;;;;;2.75;100.00;102522.03;7384581;19;20407;-59
2022/12/01 06:41:08;;;;;;;127.87;43.87;;;;;;;2.78;100.00;102531.63;7383007;19;20953;-58
2022/12/01 06:43:39;;;;;;;123.17;42.90;;;;;;;2.76;100.00;102528.91;7361258;19;20365;-58
2022/12/01 06:46:08;;;;;;;117.47;42.90;;;;;;;2.66;100.00;102534.72;7379780;19;20463;-60
2022/12/01 06:48:38;;;;;;;126.57;45.80;;;;;;;2.71;100.00;102535.19;7382387;19;20428;-59
2022/12/01 06:51:10;;;;;;;118.43;43.20;;;;;;;2.67;100.00;102533.97;7385859;19;20403;-57
2022/12/01 06:53:39;;;;;;;126.80;45.23;;;;;;;2.62;100.00;102530.06;7384576;19;20423;-58
2022/12/01 06:56:09;;;;;;;125.60;43.67;;;;;;;2.61;100.00;102528.25;7385719;19;20838;-58
2022/12/01 06:58:39;;;;;;;114.27;42.67;;;;;;;2.56;100.00;102530.34;7392552;19;20883;-58
2022/12/01 07:01:10;;;;;;;127.80;45.60;;;;;;;2.63;100.00;102536.06;7394491;19;20387;-59
2022/12/01 07:03:40;;;;;;;126.27;46.97;;;;;;;2.71;100.00;102535.19;7392245;19;20422;-59
2022/12/01 07:06:12;;;;;;;119.13;40.50;;;;;;;2.66;100.00;102538.94;7392671;19;20446;-56
2022/12/01 07:08:41;;;;;;;130.80;46.20;;;;;;;2.67;100.00;102543.28;7393317;19;20780;-59
2022/12/01 07:11:13;;;;;;;128.90;43.40;;;;;;;2.67;100.00;102551.81;7396056;19;20395;-55
2022/12/01 07:13:44;;;;;;;137.67;48.57;;;;;;;2.70;100.00;102549.59;7392533;19;20410;-59
2022/12/01 07:16:14;;;;;;;130.80;42.40;;;;;;;2.59;100.00;102546.69;7395186;19;20383;-59
2022/12/01 07:18:44;;;;;;;128.73;44.47;;;;;;;2.59;100.00;102544.13;7393636;19;20418;-58
2022/12/01 07:21:16;;;;;;;128.10;42.50;;;;;;;2.59;100.00;102549.22;7395826;19;20395;-56
2022/12/01 07:23:45;;;;;;;132.90;44.80;;;;;;;2.55;100.00;102548.94;7393692;19;20415;-59
2022/12/01 07:26:16;;;;;;;125.03;43.07;;;;;;;2.56;100.00;102554.91;7394537;19;20756;-60
2022/12/01 07:28:46;;;;;;;129.87;43.33;;;;;;;2.60;100.00;102553.59;7393283;19;20441;-59
2022/12/01 07:31:18;;;;;;;102.23;37.17;;;;;;;2.84;100.00;102553.53;7396488;19;20458;-55
2022/12/01 07:33:47;;;;;;;125.70;39.60;;;;;;;3.43;100.00;102547.44;7392560;19;20473;-58
2022/12/01 07:36:20;;;;;;;113.97;41.33;;;;;;;4.64;100.00;102533.47;7395262;19;20478;-59
2022/12/01 07:38:49;;;;;;;120.37;42.57;;;;;;;4.78;100.00;102541.53;7393886;19;20433;-58
2022/12/01 07:41:20;;;;;;;129.60;44.07;;;;;;;5.21;100.00;102545.53;7395730;19;20422;-58
2022/12/01 07:43:50;;;;;;;108.43;41.47;;;;;;;4.89;100.00;102556.22;7391487;19;20813;-59
2022/12/01 07:46:21;;;;;;;117.43;43.00;;;;;;;4.57;100.00;102577.13;7394482;19;20384;-58
2022/12/01 07:48:53;;;;;;;148.77;56.87;;;;;;;4.42;100.00;102581.66;7393363;19;20962;-59
2022/12/01 07:51:26;;;;;;;180.13;72.67;;;;;;;4.23;100.00;102600.31;7394620;19;20410;-57
2022/12/01 07:53:56;;;;;;;126.13;50.03;;;;;;;4.18;100.00;102611.75;7394574;19;20704;-55
2022/12/01 07:56:25;;;;;;;109.23;43.43;;;;;;;3.71;100.00;102626.75;7395873;19;20388;-58
2022/12/01 07:58:55;;;;;;;105.90;41.10;;;;;;;3.55;100.00;102632.88;7392747;19;20941;-58
2022/12/01 08:01:26;;;;;;;115.53;42.13;;;;;;;3.49;100.00;102625.50;7394318;19;20936;-56
2022/12/01 08:03:57;;;;;;;104.87;39.90;;;;;;;3.42;100.00;102633.28;7391103;19;20415;-57
2022/12/01 08:06:29;;;;;;;120.30;42.07;;;;;;;3.22;100.00;102644.94;7394203;19;20391;-57
2022/12/01 08:08:59;;;;;;;103.47;39.07;;;;;;;3.18;100.00;102641.91;7392993;19;20404;-54
2022/12/01 08:11:30;;;;;;;109.10;41.07;;;;;;;3.24;100.00;102642.53;7399309;19;20435;-58
2022/12/01 08:13:59;;;;;;;112.03;40.17;;;;;;;3.19;100.00;102649.69;7393726;19;20416;-59
2022/12/01 08:16:30;;;;;;;105.97;38.77;;;;;;;2.95;100.00;102648.09;7394639;19;20396;-59
2022/12/01 08:18:59;;;;;;;94.30;34.57;;;;;;;2.85;100.00;102646.25;7391185;19;20423;-56
2022/12/01 08:21:31;;;;;;;96.53;35.80;;;;;;;2.82;100.00;102662.13;7394268;19;20392;-56
2022/12/01 08:24:01;;;;;;;107.37;37.90;;;;;;;2.74;100.00;102651.88;7392554;19;20403;-56
2022/12/01 08:26:30;;;;;;;93.10;36.93;;;;;;;2.74;100.00;102649.31;7394323;19;20399;-56
2022/12/01 08:29:00;;;;;;;101.57;38.73;;;;;;;2.66;100.00;102651.09;7393057;19;20403;-59
2022/12/01 08:31:31;;;;;;;106.20;38.00;;;;;;;2.55;100.00;102652.50;7394041;19;20916;-56
2022/12/01 08:34:01;;;;;;;105.53;39.20;;;;;;;2.56;100.00;102657.78;7391341;19;20956;-53
2022/12/01 08:36:33;;;;;;;108.23;38.07;;;;;;;2.58;100.00;102649.38;7394797;19;20395;-58
2022/12/01 08:39:02;;;;;;;128.57;46.20;;;;;;;2.78;100.00;102638.72;7391539;19;20411;-58
2022/12/01 08:41:32;;;;;;;129.70;46.97;;;;;;;3.04;100.00;102643.97;7392529;19;20730;-57
2022/12/01 08:44:02;;;;;;;116.33;41.67;;;;;;;3.08;100.00;102640.97;7392962;19;20410;-58
2022/12/01 08:46:34;;;;;;;136.77;42.60;;;;;;;3.05;100.00;102643.22;7391802;19;20940;-59
2022/12/01 08:49:04;;;;;;;117.53;42.10;;;;;;;3.02;100.00;102650.53;7388683;19;20414;-59
2022/12/01 08:51:37;;;;;;;111.73;38.80;;;;;;;3.06;100.00;102652.66;7393868;19;20399;-59
2022/12/01 08:54:07;;;;;;;114.70;39.63;;;;;;;3.09;100.00;102646.97;7391298;19;20402;-59
2022/12/01 08:56:39;;;;;;;123.07;43.30;;;;;;;3.16;100.00;102646.84;7393270;19;20391;-59
2022/12/01 08:59:08;;;;;;;115.53;42.00;;;;;;;3.11;100.00;102655.69;7391221;19;20378;-59
2022/12/01 09:01:50;;;;;;;112.07;38.90;;;;;;;3.19;100.00;102659.91;7392875;19;20416;-59
2022/12/01 09:04:21;;;;;;;108.77;40.83;;;;;;;3.23;100.00;102653.50;7388247;19;20419;-59
2022/12/01 09:06:54;;;;;;;115.03;44.70;;;;;;;3.19;100.00;102662.47;7392946;19;20388;-60
2022/12/01 09:09:25;;;;;;;103.30;37.37;;;;;;;3.16;100.00;102663.78;7386941;19;20423;-60
2022/12/01 09:11:55;;;;;;;103.83;36.97;;;;;;;3.02;100.00;102667.50;7392467;19;20411;-60
2022/12/01 09:14:25;;;;;;;109.20;38.20;;;;;;;2.94;100.00;102661.59;7387257;19;20434;-59
2022/12/01 09:16:54;;;;;;;95.97;36.80;;;;;;;2.87;100.00;102669.38;7392796;19;21037;-59
2022/12/01 09:19:24;;;;;;;103.37;37.63;;;;;;;2.88;100.00;102648.22;7388230;19;20414;-59
2022/12/01 09:21:56;;;;;;;98.50;36.23;;;;;;;2.86;100.00;102657.38;7392281;19;20455;-59
2022/12/01 09:24:26;;;;;;;93.07;35.57;;;;;;;2.84;100.00;102655.53;7390365;19;20844;-59
2022/12/01 09:26:57;;;;;;;103.53;36.73;;;;;;;2.84;100.00;102664.84;7391893;19;20396;-60
2022/12/01 09:29:26;;;;;;;94.17;36.30;;;;;;;2.83;100.00;102669.03;7389929;19;20395;-59
2022/12/01 09:31:59;;;;;;;91.40;32.90;;;;;;;2.90;100.00;102668.03;7391168;19;20773;-59
2022/12/01 09:34:29;;;;;;;92.70;35.07;;;;;;;2.83;100.00;102665.59;7389357;19;20414;-59
2022/12/01 09:37:02;;;;;;;92.40;35.03;;;;;;;2.92;100.00;102668.19;7391354;19;20399;-59
2022/12/01 09:39:32;;;;;;;93.67;34.40;;;;;;;2.96;100.00;102671.22;7389794;19;20403;-59
2022/12/01 09:42:04;;;;;;;103.53;36.80;;;;;;;2.95;100.00;102668.50;7392036;19;20770;-59
2022/12/01 09:44:41;;;;;;;122.40;44.17;;;;;;;2.94;100.00;102666.69;7389860;19;20430;-60
2022/12/01 09:47:17;;;;;;;144.23;53.57;;;;;;;2.93;100.00;102670.00;7393315;19;20390;-59
2022/12/01 09:49:55;;;;;;;96.30;34.03;;;;;;;3.08;100.00;102666.47;7392721;19;20514;-59
2022/12/01 09:52:28;;;;;;;115.27;39.67;;;;;;;3.10;100.00;102661.53;7394227;19;20408;-59
2022/12/01 09:55:00;;;;;;;84.27;35.00;;;;;;;3.15;100.00;102672.19;7389364;19;20411;-59
2022/12/01 09:57:32;;;;;;;86.97;31.93;;;;;;;2.99;100.00;102665.53;7395428;19;20399;-59
2022/12/01 10:00:03;;;;;;;93.53;35.67;;;;;;;3.07;100.00;102664.66;7389917;19;20411;-60
2022/12/01 10:02:35;;;;;;;76.00;31.03;;;;;;;3.39;100.00;102666.16;7391742;19;20452;-57
2022/12/01 10:05:08;;;;;;;82.27;30.93;;;;;;;3.61;100.00;102670.88;7389602;19;20460;-58
2022/12/01 10:07:44;;;;;;;78.17;29.10;;;;;;;3.53;100.00;102672.66;7391323;19;20396;-56
2022/12/01 10:10:20;;;;;;;72.67;28.30;;;;;;;3.26;100.00;102676.75;7391291;19;20435;-58
2022/12/01 10:12:49;;;;;;;69.87;28.50;;;;;;;3.24;100.00;102680.81;7393053;19;20388;-58
2022/12/01 10:15:29;;;;;;;71.93;27.07;;;;;;;3.45;100.00;102683.75;7389608;19;20423;-60
2022/12/01 10:18:11;;;;;;;67.80;26.07;;;;;;;3.62;100.00;102682.88;7392097;19;20395;-60
2022/12/01 10:20:45;;;;;;;66.87;25.23;;;;;;;3.42;100.00;102688.50;7385742;19;20939;-59
2022/12/01 10:23:26;;;;;;;70.33;25.40;;;;;;;3.23;100.00;102682.44;7394969;19;20407;-54
2022/12/01 10:25:58;;;;;;;72.17;24.47;;;;;;;3.27;100.00;102688.75;7389620;19;20418;-57
2022/12/01 10:28:46;;;;;;;64.37;24.53;;;;;;;3.22;100.00;102679.72;7388502;19;20388;-58
2022/12/01 10:31:20;;;;;;;63.00;24.43;;;;;;;3.22;100.00;102684.84;7390983;19;20398;-58
2022/12/01 10:34:05;;;;;;;72.03;26.33;;;;;;;3.18;100.00;102685.28;7388857;19;20418;-59
2022/12/01 10:36:35;;;;;;;63.47;25.03;;;;;;;2.98;100.00;102681.59;7391712;19;20406;-57
2022/12/01 10:39:08;;;;;;;61.90;21.60;;;;;;;2.91;100.00;102696.97;7376152;19;20957;-56
2022/12/01 10:41:39;;;;;;;71.40;25.20;;;;;;;3.50;100.00;102682.56;7390784;19;20387;-58
2022/12/01 10:44:09;;;;;;;77.67;30.00;;;;;;;4.45;100.00;102672.31;7390242;19;20817;-59
2022/12/01 10:46:43;;;;;;;63.90;25.10;;;;;;;4.45;100.00;102682.53;7390477;19;20798;-58
2022/12/01 10:49:14;;;;;;;103.30;39.67;;;;;;;4.70;100.00;102679.81;7387740;19;20426;-59
2022/12/01 10:51:55;;;;;;;130.53;51.13;;;;;;;4.53;100.00;102684.94;7390810;19;20399;-60
2022/12/01 10:54:34;;;;;;;145.23;56.97;;;;;;;4.84;100.00;102681.16;7387801;19;20554;-59
2022/12/01 10:57:04;;;;;;;127.67;47.13;;;;;;;4.89;100.00;102694.38;7394161;19;20435;-59
2022/12/01 10:59:37;;;;;;;72.43;27.90;;;;;;;4.04;100.00;102707.47;7388455;19;20425;-59
2022/12/01 11:02:15;;;;;;;78.70;28.10;;;;;;;3.89;100.00;102707.75;7389505;19;20404;-58
2022/12/01 11:04:53;;;;;;;87.03;31.20;;;;;;;3.65;100.00;102724.94;7387324;19;20422;-60
2022/12/01 11:07:25;;;;;;;77.20;27.30;;;;;;;3.40;100.00;102715.53;7390255;19;20387;-58
2022/12/01 11:10:06;;;;;;;85.47;33.80;;;;;;;3.37;100.00;102724.69;7388439;19;20419;-58
2022/12/01 11:12:36;;;;;;;85.17;25.73;;;;;;;3.33;100.00;102721.69;7390503;19;20396;-58
2022/12/01 11:15:07;;;;;;;69.90;23.87;;;;;;;3.17;100.00;102716.66;7386854;19;20820;-59
2022/12/01 11:17:40;;;;;;;69.53;22.00;;;;;;;3.16;100.00;102712.25;7390482;19;20730;-58
2022/12/01 11:20:32;;;;;;;62.10;21.80;;;;;;;2.98;100.00;102717.28;7387420;19;20440;-57
2022/12/01 11:23:25;;;;;;;66.83;24.37;;;;;;;2.80;100.00;102722.28;7390410;19;20503;-58
2022/12/01 11:26:05;;;;;;;72.63;21.87;;;;;;;2.73;100.00;102712.19;7387838;19;20524;-58
2022/12/01 11:28:35;;;;;;;59.10;21.30;;;;;;;2.66;100.00;102714.81;7387194;19;20950;-58
2022/12/01 11:31:07;;;;;;;63.20;21.33;;;;;;;2.75;100.00;102704.66;7390294;19;20391;-57
2022/12/01 11:33:46;;;;;;;64.90;22.00;;;;;;;2.79;100.00;102707.72;7388003;19;20491;-58